createdAt,value
2022-07-25T00:02:00.858Z,90.32
2022-07-25T00:04:29.931Z,90.44
2022-07-25T00:06:57.596Z,90.98
2022-07-25T00:09:26.565Z,91.28
2022-07-25T00:11:54.337Z,91.71
2022-07-25T00:14:21.901Z,92.58
2022-07-25T00:16:49.565Z,92.97
2022-07-25T00:19:17.226Z,92.71
2022-07-25T00:21:44.833Z,92.11
2022-07-25T00:24:12.533Z,91.89
2022-07-25T00:26:41.452Z,91.63
2022-07-25T00:29:09.167Z,91.43
2022-07-25T00:31:36.927Z,91.39
2022-07-25T00:34:05.244Z,92.00
2022-07-25T00:36:33.085Z,92.34
2022-07-25T00:39:00.866Z,92.29
2022-07-25T00:41:28.529Z,92.13
2022-07-25T00:43:57.561Z,92.12
2022-07-25T00:46:25.184Z,91.84
2022-07-25T00:48:54.808Z,91.86
2022-07-25T00:51:22.986Z,91.54
2022-07-25T00:53:50.769Z,91.67
2022-07-25T00:56:18.617Z,92.20
2022-07-25T00:58:46.659Z,92.20
2022-07-25T01:01:15.922Z,92.14
2022-07-25T01:03:44.115Z,92.49
2022-07-25T01:06:11.794Z,92.97
2022-07-25T01:08:39.966Z,93.62
2022-07-25T01:11:08.069Z,94.29
2022-07-25T01:13:35.888Z,94.68
2022-07-25T01:16:03.782Z,94.95
2022-07-25T01:18:34.466Z,95.25
2022-07-25T01:21:03.583Z,95.16
2022-07-25T01:23:31.230Z,94.76
2022-07-25T01:25:58.815Z,94.81
2022-07-25T01:28:26.484Z,94.98
2022-07-25T01:30:54.496Z,95.69
2022-07-25T01:33:22.889Z,95.73
2022-07-25T01:35:51.225Z,95.91
2022-07-25T01:38:20.200Z,95.98
2022-07-25T01:40:49.016Z,95.82
2022-07-25T01:43:16.656Z,95.33
2022-07-25T01:45:44.254Z,95.51
2022-07-25T01:48:12.008Z,95.52
2022-07-25T01:50:40.715Z,96.06
2022-07-25T01:53:08.537Z,96.93
2022-07-25T01:55:37.701Z,98.22
2022-07-25T01:58:05.330Z,99.14
2022-07-25T02:00:35.357Z,99.16
2022-07-25T02:03:20.691Z,99.50
2022-07-25T02:05:48.363Z,99.87
2022-07-25T02:08:16.135Z,99.93
2022-07-25T02:10:46.128Z,99.41
2022-07-25T02:13:13.979Z,98.82
2022-07-25T02:15:41.658Z,98.10
2022-07-25T02:18:09.494Z,97.59
2022-07-25T02:20:37.100Z,96.95
2022-07-25T02:23:04.909Z,96.46
2022-07-25T02:25:33.228Z,96.08
2022-07-25T02:28:02.593Z,95.66
2022-07-25T02:30:30.265Z,95.53
2022-07-25T02:32:57.927Z,95.92
2022-07-25T02:35:25.516Z,96.44
2022-07-25T02:37:53.188Z,96.99
2022-07-25T02:40:20.802Z,96.89
2022-07-25T02:42:48.378Z,96.75
2022-07-25T02:45:17.346Z,96.96
2022-07-25T02:47:45.194Z,96.93
2022-07-25T02:50:14.952Z,97.07
2022-07-25T02:52:42.848Z,96.47
2022-07-25T02:55:11.862Z,95.96
2022-07-25T02:57:39.956Z,95.75
2022-07-25T03:00:09.227Z,95.75
2022-07-25T03:02:38.481Z,95.78
2022-07-25T03:05:08.179Z,96.14
2022-07-25T03:07:35.814Z,96.10
2022-07-25T03:10:03.967Z,96.55
2022-07-25T03:12:39.456Z,96.83
2022-07-25T03:15:08.329Z,97.07
2022-07-25T03:17:36.010Z,97.53
2022-07-25T03:20:06.007Z,97.64
2022-07-25T03:22:33.621Z,97.89
2022-07-25T03:25:01.735Z,98.20
2022-07-25T03:27:29.499Z,98.92
2022-07-25T03:29:58.175Z,99.01
2022-07-25T03:32:25.858Z,99.68
2022-07-25T03:34:53.573Z,100.00
2022-07-25T03:37:23.694Z,99.76
2022-07-25T03:39:51.442Z,99.72
2022-07-25T03:42:22.400Z,99.81
2022-07-25T03:44:52.873Z,99.61
2022-07-25T03:47:21.029Z,98.89
2022-07-25T03:49:48.775Z,98.77
2022-07-25T03:52:16.320Z,98.38
2022-07-25T03:54:45.413Z,98.49
2022-07-25T03:57:13.320Z,99.14
2022-07-25T03:59:41.199Z,99.70
2022-07-25T04:02:08.871Z,99.36
2022-07-25T04:04:36.621Z,99.68
2022-07-25T04:07:04.262Z,99.67
2022-07-25T04:09:33.479Z,99.46
2022-07-25T04:12:02.860Z,99.83
2022-07-25T04:14:30.472Z,99.69
2022-07-25T04:16:58.262Z,99.78
2022-07-25T04:19:26.271Z,99.78
2022-07-25T04:21:56.676Z,100.00
2022-07-25T04:24:24.236Z,100.00
2022-07-25T04:26:51.919Z,100.00
2022-07-25T04:29:20.814Z,99.86
2022-07-25T04:31:48.535Z,99.23
2022-07-25T04:34:16.292Z,99.09
2022-07-25T04:36:43.933Z,98.83
2022-07-25T04:39:11.556Z,99.19
2022-07-25T04:41:39.178Z,99.66
2022-07-25T04:44:08.225Z,99.67
2022-07-25T04:46:37.556Z,99.80
2022-07-25T04:49:05.248Z,99.92
2022-07-25T04:51:32.989Z,100.00
2022-07-25T04:54:00.585Z,100.00
2022-07-25T04:56:28.145Z,100.00
2022-07-25T04:58:59.551Z,100.00
2022-07-25T05:01:29.712Z,100.00
2022-07-25T05:03:58.745Z,100.00
2022-07-25T05:06:26.479Z,100.00
2022-07-25T05:08:54.142Z,100.00
2022-07-25T05:11:21.785Z,100.00
2022-07-25T05:13:49.377Z,100.00
2022-07-25T05:16:17.196Z,100.00
2022-07-25T05:18:44.806Z,100.00
2022-07-25T05:21:14.235Z,100.00
2022-07-25T05:23:42.008Z,100.00
2022-07-25T05:26:09.667Z,100.00
2022-07-25T05:28:37.245Z,100.00
2022-07-25T05:31:05.016Z,100.00
2022-07-25T05:33:33.093Z,100.00
2022-07-25T05:36:01.139Z,100.00
2022-07-25T05:38:30.259Z,100.00
2022-07-25T05:40:58.168Z,100.00
2022-07-25T05:43:26.074Z,100.00
2022-07-25T05:45:54.297Z,100.00
2022-07-25T05:48:21.906Z,100.00
2022-07-25T05:50:49.433Z,100.00
2022-07-25T05:53:17.038Z,100.00
2022-07-25T05:55:46.133Z,100.00
2022-07-25T05:58:13.760Z,100.00
2022-07-25T06:00:41.752Z,100.00
2022-07-25T06:03:09.692Z,100.00
2022-07-25T06:05:37.445Z,100.00
2022-07-25T06:08:05.382Z,100.00
2022-07-25T06:10:33.011Z,99.98
2022-07-25T06:13:01.955Z,98.83
2022-07-25T06:15:29.749Z,97.58
2022-07-25T06:17:57.634Z,97.08
2022-07-25T06:20:27.323Z,96.88
2022-07-25T06:22:54.953Z,97.24
2022-07-25T06:25:22.797Z,97.03
2022-07-25T06:27:50.417Z,97.13
2022-07-25T06:30:20.604Z,97.36
2022-07-25T06:32:48.647Z,96.75
2022-07-25T06:35:16.466Z,96.53
2022-07-25T06:37:44.279Z,96.02
2022-07-25T06:40:12.418Z,94.06
2022-07-25T06:42:40.382Z,93.78
2022-07-25T06:45:09.911Z,94.28
2022-07-25T06:47:40.273Z,94.47
2022-07-25T06:50:11.146Z,95.11
2022-07-25T06:52:39.316Z,94.27
2022-07-25T06:55:10.871Z,93.60
2022-07-25T06:57:39.063Z,92.90
2022-07-25T07:00:09.943Z,89.96
2022-07-25T07:02:48.623Z,90.44
2022-07-25T07:05:16.520Z,92.37
2022-07-25T07:07:47.639Z,91.53
2022-07-25T07:10:15.974Z,91.39
2022-07-25T07:12:44.044Z,90.66
2022-07-25T07:15:12.637Z,90.49
2022-07-25T07:17:41.746Z,92.15
2022-07-25T07:20:10.969Z,90.73
2022-07-25T07:22:45.937Z,85.91
2022-07-25T07:25:14.837Z,86.15
2022-07-25T07:27:42.781Z,87.21
2022-07-25T07:30:11.486Z,83.25
2022-07-25T07:32:39.179Z,79.44
2022-07-25T07:35:08.995Z,77.08
2022-07-25T07:37:41.385Z,78.11
2022-07-25T07:40:17.218Z,74.30
2022-07-25T07:42:47.591Z,74.17
2022-07-25T07:45:16.792Z,71.46
2022-07-25T07:47:46.833Z,69.15
2022-07-25T07:50:17.186Z,68.00
2022-07-25T07:52:45.252Z,67.48
2022-07-25T07:55:30.857Z,67.48
2022-07-25T07:57:59.643Z,69.15
2022-07-25T08:00:29.043Z,69.53
2022-07-25T08:02:57.065Z,69.64
2022-07-25T08:05:27.790Z,68.35
2022-07-25T08:07:55.918Z,66.60
2022-07-25T08:10:25.196Z,66.55
2022-07-25T08:12:53.149Z,67.39
2022-07-25T08:15:23.174Z,66.17
2022-07-25T08:17:52.006Z,65.71
2022-07-25T08:20:37.428Z,65.28
2022-07-25T08:23:07.773Z,65.98
2022-07-25T08:25:36.291Z,65.83
2022-07-25T08:28:06.213Z,65.13
2022-07-25T08:30:34.530Z,65.48
2022-07-25T08:33:03.748Z,64.42
2022-07-25T08:35:32.589Z,63.61
2022-07-25T08:38:01.794Z,64.24
2022-07-25T08:40:32.078Z,62.87
2022-07-25T08:43:00.401Z,62.30
2022-07-25T08:45:29.241Z,62.54
2022-07-25T08:47:57.536Z,63.77
2022-07-25T08:50:27.896Z,64.33
2022-07-25T08:53:16.223Z,62.86
2022-07-25T08:55:45.740Z,62.94
2022-07-25T08:58:16.050Z,63.98
2022-07-25T09:00:44.779Z,64.27
2022-07-25T09:03:13.414Z,64.09
2022-07-25T09:05:41.778Z,64.35
2022-07-25T09:08:11.010Z,64.87
2022-07-25T09:10:42.361Z,64.01
2022-07-25T09:13:14.899Z,63.93
2022-07-25T09:15:46.733Z,62.65
2022-07-25T09:18:16.974Z,62.77
2022-07-25T09:20:46.931Z,62.55
2022-07-25T09:23:16.630Z,62.80
2022-07-25T09:25:44.389Z,62.86
2022-07-25T09:28:15.792Z,60.95
2022-07-25T09:30:55.312Z,61.10
2022-07-25T09:33:23.380Z,59.22
2022-07-25T09:35:51.689Z,58.00
2022-07-25T09:38:20.319Z,57.05
2022-07-25T09:40:59.214Z,56.18
2022-07-25T09:43:38.382Z,56.61
2022-07-25T09:46:06.810Z,57.05
2022-07-25T09:48:35.511Z,57.50
2022-07-25T09:51:03.766Z,57.52
2022-07-25T09:53:31.504Z,55.63
2022-07-25T09:55:59.639Z,56.46
2022-07-25T09:58:28.700Z,57.68
2022-07-25T10:01:02.947Z,57.97
2022-07-25T10:03:44.048Z,57.30
2022-07-25T10:06:20.798Z,56.13
2022-07-25T10:08:49.944Z,56.17
2022-07-25T10:11:22.609Z,55.96
2022-07-25T10:13:50.284Z,54.27
2022-07-25T10:16:21.903Z,53.04
2022-07-25T10:18:52.649Z,52.13
2022-07-25T10:21:26.886Z,51.97
2022-07-25T10:24:00.478Z,52.14
2022-07-25T10:26:28.276Z,51.83
2022-07-25T10:28:56.960Z,51.83
2022-07-25T10:31:34.646Z,51.56
2022-07-25T10:34:05.544Z,51.16
2022-07-25T10:36:43.898Z,51.22
2022-07-25T10:39:13.827Z,49.61
2022-07-25T10:41:43.229Z,50.66
2022-07-25T10:44:14.087Z,50.41
2022-07-25T10:46:44.877Z,51.10
2022-07-25T10:49:20.574Z,50.43
2022-07-25T10:51:57.852Z,50.22
2022-07-25T10:54:25.874Z,50.24
2022-07-25T10:56:55.785Z,50.90
2022-07-25T10:59:28.900Z,51.00
2022-07-25T11:01:58.238Z,52.03
2022-07-25T11:04:26.152Z,53.04
2022-07-25T11:06:54.157Z,53.41
2022-07-25T11:09:27.270Z,53.15
2022-07-25T11:11:57.311Z,52.73
2022-07-25T11:14:26.901Z,52.98
2022-07-25T11:16:56.107Z,51.83
2022-07-25T11:19:26.943Z,52.66
2022-07-25T11:21:56.995Z,50.17
2022-07-25T11:24:36.730Z,50.67
2022-07-25T11:27:11.294Z,51.12
2022-07-25T11:29:41.237Z,51.22
2022-07-25T11:32:10.138Z,53.01
2022-07-25T11:34:41.263Z,52.79
2022-07-25T11:37:10.539Z,52.34
2022-07-25T11:39:40.892Z,53.32
2022-07-25T11:42:11.123Z,53.08
2022-07-25T11:44:44.253Z,49.87
2022-07-25T11:47:25.034Z,49.65
2022-07-25T11:49:55.646Z,50.41
2022-07-25T11:52:26.596Z,50.14
2022-07-25T11:54:55.968Z,50.06
2022-07-25T11:57:24.858Z,49.37
2022-07-25T11:59:52.977Z,49.27
2022-07-25T12:02:25.472Z,49.57
2022-07-25T12:04:59.482Z,50.29
2022-07-25T12:07:41.573Z,48.24
2022-07-25T12:10:11.471Z,47.11
2022-07-25T12:12:48.499Z,46.49
2022-07-25T12:15:18.471Z,47.29
2022-07-25T12:17:46.637Z,47.99
2022-07-25T12:20:17.907Z,46.99
2022-07-25T12:22:46.020Z,48.03
2022-07-25T12:25:13.704Z,47.55
2022-07-25T12:27:42.154Z,46.84
2022-07-25T12:30:11.717Z,48.26
2022-07-25T12:32:39.735Z,48.16
2022-07-25T12:35:09.266Z,47.68
2022-07-25T12:37:38.326Z,47.80
2022-07-25T12:40:07.261Z,48.01
2022-07-25T12:42:35.125Z,47.34
2022-07-25T12:45:03.116Z,46.61
2022-07-25T12:47:31.094Z,45.91
2022-07-25T12:49:59.410Z,45.95
2022-07-25T12:52:27.145Z,45.50
2022-07-25T12:54:56.229Z,46.01
2022-07-25T12:57:24.601Z,46.83
2022-07-25T12:59:52.576Z,44.65
2022-07-25T13:02:20.171Z,43.21
2022-07-25T13:04:48.913Z,43.43
2022-07-25T13:07:17.337Z,43.29
2022-07-25T13:09:45.098Z,43.31
2022-07-25T13:12:16.500Z,44.04
2022-07-25T13:14:44.488Z,43.52
2022-07-25T13:17:12.143Z,42.57
2022-07-25T13:19:39.779Z,43.05
2022-07-25T13:22:07.700Z,43.65
2022-07-25T13:24:35.443Z,44.10
2022-07-25T13:27:04.132Z,44.15
2022-07-25T13:29:33.124Z,44.94
2022-07-25T13:32:03.242Z,43.15
2022-07-25T13:34:31.764Z,44.88
2022-07-25T13:36:59.582Z,45.39
2022-07-25T13:39:27.173Z,45.98
2022-07-25T13:41:54.920Z,46.55
2022-07-25T13:44:22.504Z,45.20
2022-07-25T13:46:51.457Z,45.10
2022-07-25T13:49:20.046Z,45.11
2022-07-25T13:51:47.735Z,45.98
2022-07-25T13:54:15.463Z,46.52
2022-07-25T13:56:43.254Z,46.62
2022-07-25T13:59:14.494Z,47.08
2022-07-25T14:01:46.079Z,47.73
2022-07-25T14:04:15.074Z,48.35
2022-07-25T14:06:43.192Z,49.59
2022-07-25T14:09:11.393Z,48.89
2022-07-25T14:11:39.597Z,46.97
2022-07-25T14:14:07.405Z,46.99
2022-07-25T14:16:35.251Z,47.06
2022-07-25T14:19:03.211Z,46.57
2022-07-25T14:21:32.278Z,46.93
2022-07-25T14:24:00.006Z,47.04
2022-07-25T14:26:28.271Z,47.78
2022-07-25T14:28:56.424Z,49.01
2022-07-25T14:31:24.066Z,49.47
2022-07-25T14:33:52.006Z,49.60
2022-07-25T14:36:20.078Z,49.69
2022-07-25T14:38:49.085Z,50.14
2022-07-25T14:41:17.007Z,50.55
2022-07-25T14:43:44.716Z,50.55
2022-07-25T14:46:12.326Z,51.42
2022-07-25T14:48:40.241Z,51.75
2022-07-25T14:51:08.480Z,51.90
2022-07-25T14:53:36.887Z,52.21
2022-07-25T14:56:07.352Z,51.34
2022-07-25T14:58:35.522Z,51.70
2022-07-25T15:01:03.270Z,52.10
2022-07-25T15:03:30.917Z,50.46
2022-07-25T15:05:58.580Z,50.65
2022-07-25T15:08:26.337Z,51.29
2022-07-25T15:10:54.112Z,51.02
2022-07-25T15:13:31.786Z,50.95
2022-07-25T15:16:00.236Z,51.34
2022-07-25T15:18:28.052Z,52.07
2022-07-25T15:20:55.805Z,51.86
2022-07-25T15:23:24.706Z,50.41
2022-07-25T15:26:02.423Z,50.14
2022-07-25T15:28:33.831Z,49.29
2022-07-25T15:31:01.826Z,49.12
2022-07-25T15:33:29.495Z,50.11
2022-07-25T15:35:57.156Z,52.31
2022-07-25T15:38:24.958Z,50.08
2022-07-25T15:40:52.649Z,50.75
2022-07-25T15:43:20.189Z,50.73
2022-07-25T15:45:49.114Z,52.07
2022-07-25T15:48:17.934Z,53.25
2022-07-25T15:50:46.893Z,53.60
2022-07-25T15:53:14.984Z,53.16
2022-07-25T15:55:43.806Z,52.51
2022-07-25T15:58:12.347Z,53.59
2022-07-25T16:00:41.208Z,53.57
2022-07-25T16:03:11.592Z,53.04
2022-07-25T16:05:40.390Z,53.85
2022-07-25T16:08:09.795Z,51.99
2022-07-25T16:10:38.381Z,53.61
2022-07-25T16:13:06.149Z,54.14
2022-07-25T16:15:34.165Z,54.69
2022-07-25T16:18:02.911Z,54.22
2022-07-25T16:20:33.828Z,55.31
2022-07-25T16:23:01.825Z,55.69
2022-07-25T16:25:30.917Z,56.32
2022-07-25T16:27:59.391Z,56.55
2022-07-25T16:30:27.561Z,57.36
2022-07-25T16:32:55.429Z,57.28
2022-07-25T16:35:23.637Z,57.88
2022-07-25T16:37:52.791Z,57.89
2022-07-25T16:40:21.092Z,58.09
2022-07-25T16:42:49.606Z,57.94
2022-07-25T16:45:17.294Z,57.25
2022-07-25T16:47:45.302Z,56.54
2022-07-25T16:50:12.889Z,56.92
2022-07-25T16:52:40.592Z,57.42
2022-07-25T16:55:10.266Z,56.89
2022-07-25T16:57:38.904Z,56.53
2022-07-25T17:00:08.673Z,56.00
2022-07-25T17:02:36.247Z,55.93
2022-07-25T17:05:04.895Z,55.60
2022-07-25T17:07:33.056Z,55.63
2022-07-25T17:10:00.927Z,55.96
2022-07-25T17:12:29.893Z,54.40
2022-07-25T17:14:57.683Z,53.42
2022-07-25T17:17:25.504Z,53.67
2022-07-25T17:19:56.614Z,52.95
2022-07-25T17:22:27.966Z,53.38
2022-07-25T17:24:55.734Z,53.34
2022-07-25T17:27:23.576Z,53.31
2022-07-25T17:29:52.552Z,53.58
2022-07-25T17:32:20.147Z,53.48
2022-07-25T17:34:47.738Z,53.68
2022-07-25T17:37:15.379Z,53.93
2022-07-25T17:39:43.017Z,53.25
2022-07-25T17:42:10.737Z,53.61
2022-07-25T17:44:38.717Z,53.72
2022-07-25T17:47:07.752Z,53.47
2022-07-25T17:49:35.396Z,53.28
2022-07-25T17:52:03.055Z,54.46
2022-07-25T17:54:30.641Z,54.76
2022-07-25T17:56:58.726Z,55.34
2022-07-25T17:59:26.672Z,54.74
2022-07-25T18:01:54.411Z,53.26
2022-07-25T18:04:23.655Z,53.56
2022-07-25T18:06:51.300Z,53.34
2022-07-25T18:09:20.266Z,53.24
2022-07-25T18:11:47.968Z,52.05
2022-07-25T18:14:15.626Z,52.95
2022-07-25T18:16:45.382Z,53.21
2022-07-25T18:19:13.426Z,52.22
2022-07-25T18:21:42.369Z,52.26
2022-07-25T18:24:10.520Z,52.12
2022-07-25T18:26:39.331Z,52.38
2022-07-25T18:29:07.522Z,52.79
2022-07-25T18:31:35.995Z,52.99
2022-07-25T18:34:04.297Z,53.32
2022-07-25T18:36:32.390Z,53.67
2022-07-25T18:39:01.305Z,54.45
2022-07-25T18:41:30.063Z,55.58
2022-07-25T18:43:58.193Z,56.04
2022-07-25T18:46:27.167Z,56.51
2022-07-25T18:48:55.061Z,56.85
2022-07-25T18:51:22.834Z,57.21
2022-07-25T18:53:50.786Z,57.23
2022-07-25T18:56:19.756Z,58.19
2022-07-25T18:58:47.608Z,57.92
2022-07-25T19:01:15.216Z,57.50
2022-07-25T19:03:43.006Z,57.01
2022-07-25T19:06:10.882Z,56.11
2022-07-25T19:08:38.859Z,55.77
2022-07-25T19:11:07.141Z,56.23
2022-07-25T19:13:49.389Z,55.76
2022-07-25T19:16:17.568Z,54.65
2022-07-25T19:18:45.658Z,54.93
2022-07-25T19:21:13.490Z,55.57
2022-07-25T19:23:41.017Z,54.62
2022-07-25T19:26:08.946Z,54.86
2022-07-25T19:28:38.025Z,55.30
2022-07-25T19:31:05.865Z,55.20
2022-07-25T19:33:34.640Z,55.14
2022-07-25T19:36:03.966Z,55.12
2022-07-25T19:38:31.588Z,55.74
2022-07-25T19:40:59.339Z,55.58
2022-07-25T19:43:27.065Z,55.37
2022-07-25T19:45:56.103Z,55.57
2022-07-25T19:48:23.893Z,55.50
2022-07-25T19:50:52.048Z,56.07
2022-07-25T19:53:20.218Z,56.38
2022-07-25T19:55:50.021Z,56.39
2022-07-25T19:58:17.737Z,56.62
2022-07-25T20:00:45.774Z,57.01
2022-07-25T20:03:15.586Z,56.92
2022-07-25T20:05:45.062Z,56.83
2022-07-25T20:08:13.379Z,56.88
2022-07-25T20:10:42.864Z,56.90
2022-07-25T20:13:10.478Z,57.45
2022-07-25T20:15:38.101Z,57.62
2022-07-25T20:18:05.720Z,58.10
2022-07-25T20:20:34.872Z,57.89
2022-07-25T20:23:02.640Z,57.96
2022-07-25T20:25:30.560Z,58.68
2022-07-25T20:27:58.165Z,58.92
2022-07-25T20:30:27.521Z,59.08
2022-07-25T20:33:01.609Z,59.51
2022-07-25T20:35:37.610Z,59.89
2022-07-25T20:38:09.208Z,59.76
2022-07-25T20:40:43.891Z,60.23
2022-07-25T20:43:16.144Z,60.18
2022-07-25T20:45:43.958Z,60.18
2022-07-25T20:48:11.636Z,60.65
2022-07-25T20:50:40.744Z,60.80
2022-07-25T20:53:08.998Z,60.99
2022-07-25T20:55:37.070Z,61.50
2022-07-25T20:58:05.597Z,61.73
2022-07-25T21:00:33.366Z,61.44
2022-07-25T21:03:01.973Z,62.02
2022-07-25T21:05:29.662Z,62.18
2022-07-25T21:07:58.777Z,62.23
2022-07-25T21:10:26.919Z,62.16
2022-07-25T21:12:56.526Z,62.49
2022-07-25T21:15:24.943Z,62.39
2022-07-25T21:17:52.730Z,62.23
2022-07-25T21:20:20.369Z,61.83
2022-07-25T21:22:48.157Z,61.62
2022-07-25T21:25:17.424Z,62.13
2022-07-25T21:27:44.977Z,61.26
2022-07-25T21:30:13.137Z,61.62
2022-07-25T21:32:41.487Z,61.80
2022-07-25T21:35:09.892Z,61.57
2022-07-25T21:37:37.621Z,61.80
2022-07-25T21:40:06.013Z,61.74
2022-07-25T21:42:36.472Z,61.93
2022-07-25T21:45:04.568Z,62.07
2022-07-25T21:47:32.230Z,62.47
2022-07-25T21:50:19.239Z,62.55
2022-07-25T21:52:52.969Z,62.64
2022-07-25T21:55:21.100Z,62.91
2022-07-25T21:57:51.229Z,63.10
2022-07-25T22:00:20.032Z,62.88
2022-07-25T22:02:48.252Z,62.82
2022-07-25T22:05:17.304Z,63.17
2022-07-25T22:07:47.188Z,63.32
2022-07-25T22:10:16.797Z,63.55
2022-07-25T22:12:44.698Z,63.74
2022-07-25T22:15:14.838Z,64.07
2022-07-25T22:17:48.997Z,64.00
2022-07-25T22:20:17.829Z,64.08
2022-07-25T22:22:45.998Z,64.19
2022-07-25T22:25:14.072Z,64.69
2022-07-25T22:27:41.752Z,64.30
2022-07-25T22:30:16.125Z,64.71
2022-07-25T22:32:47.821Z,65.09
2022-07-25T22:35:15.789Z,65.36
2022-07-25T22:37:43.800Z,65.64
2022-07-25T22:40:12.467Z,66.01
2022-07-25T22:42:40.437Z,65.81
2022-07-25T22:45:09.091Z,66.32
2022-07-25T22:47:36.734Z,66.36
2022-07-25T22:50:06.846Z,66.63
2022-07-25T22:52:35.300Z,66.81
2022-07-25T22:55:02.992Z,66.64
2022-07-25T22:57:33.448Z,66.91
2022-07-25T23:00:08.086Z,67.53
2022-07-25T23:02:35.797Z,67.62
2022-07-25T23:05:05.566Z,67.85
2022-07-25T23:07:33.599Z,68.47
2022-07-25T23:10:01.897Z,68.44
2022-07-25T23:12:29.622Z,68.52
2022-07-25T23:14:57.766Z,68.72
2022-07-25T23:17:25.511Z,69.11
2022-07-25T23:19:54.727Z,69.21
2022-07-25T23:22:26.278Z,69.42
2022-07-25T23:24:53.816Z,69.57
2022-07-25T23:27:21.589Z,69.47
2022-07-25T23:29:49.510Z,69.77
2022-07-25T23:32:17.174Z,69.88
2022-07-25T23:34:45.540Z,70.08
2022-07-25T23:37:13.517Z,70.20
2022-07-25T23:39:42.534Z,70.59
2022-07-25T23:42:10.417Z,70.31
2022-07-25T23:44:39.381Z,70.60
2022-07-25T23:47:09.984Z,70.57
2022-07-25T23:49:37.965Z,70.94
2022-07-25T23:52:06.235Z,70.99
2022-07-25T23:54:34.826Z,71.03
2022-07-25T23:57:03.989Z,71.46
2022-07-25T23:59:31.647Z,71.79
